Minneapolis, Minnesota
Traffic Map
Current Weather Conditions
Minneapolis, Minnesota
Overcast Haze
Overcast
59°
Feels Like: 59°
Wind Chill: 59° Ceiling: 400
Heat Index: 59° Visibility: 5mi
Dew Point: 59° Wind: 8mph
Humidity: 100% Direction: 40° (NE)
Pressure: 29.98in Gusts: 0mph
Raw Report DataKMSP 200753Z 04007KT 5SM BR OVC004 15/15 A2998 RMK AO2 SLP153 T01500150
Traffic Incident Summary
Active as of:
Severity:
Category:
InformationThere was an issue retrieving the traffic information for this location. Please try a different location or try again shortly.
Advertisements